createdAt,value
2023-02-25T00:02:10.781Z,99202.91
2023-02-25T00:04:38.613Z,99189.53
2023-02-25T00:07:06.313Z,99184.56
2023-02-25T00:09:34.552Z,99186.28
2023-02-25T00:12:02.461Z,99201.25
2023-02-25T00:14:35.817Z,99204.16
2023-02-25T00:17:03.552Z,99188.78
2023-02-25T00:19:31.209Z,99207.22
2023-02-25T00:22:01.714Z,99218.84
2023-02-25T00:24:29.483Z,99208.44
2023-02-25T00:26:57.190Z,99183.88
2023-02-25T00:29:25.025Z,99163.69
2023-02-25T00:31:56.022Z,99181.97
2023-02-25T00:34:26.918Z,99181.28
2023-02-25T00:36:57.107Z,99127.97
2023-02-25T00:39:24.886Z,99182.38
2023-02-25T00:41:53.969Z,99193.47
2023-02-25T00:44:21.686Z,99193.72
2023-02-25T00:46:49.486Z,99174.19
2023-02-25T00:49:31.494Z,99188.22
2023-02-25T00:52:00.735Z,99185.41
2023-02-25T00:54:28.452Z,99167.41
2023-02-25T00:56:56.598Z,99221.28
2023-02-25T00:59:24.496Z,99206.50
2023-02-25T01:01:54.212Z,99217.44
2023-02-25T01:04:24.625Z,99217.94
2023-02-25T01:06:54.138Z,99195.16
2023-02-25T01:09:22.405Z,99207.34
2023-02-25T01:11:53.301Z,99212.13
2023-02-25T01:14:24.916Z,99204.41
2023-02-25T01:16:56.251Z,99205.09
2023-02-25T01:19:26.223Z,99199.03
2023-02-25T01:21:58.144Z,99224.91
2023-02-25T01:24:30.192Z,99235.69
2023-02-25T01:27:03.906Z,99233.69
2023-02-25T01:29:40.344Z,99223.81
2023-02-25T01:32:14.104Z,99219.19
2023-02-25T01:34:44.362Z,99215.66
2023-02-25T01:37:12.180Z,99242.75
2023-02-25T01:39:41.389Z,99228.97
2023-02-25T01:42:16.938Z,99225.75
2023-02-25T01:45:18.621Z,99208.94
2023-02-25T01:47:57.045Z,99223.06
2023-02-25T01:50:35.279Z,99238.06
2023-02-25T01:53:03.952Z,99222.22
2023-02-25T01:55:32.820Z,99230.66
2023-02-25T01:58:01.527Z,99224.75
2023-02-25T02:00:32.629Z,99227.81
2023-02-25T02:03:04.122Z,99227.13
2023-02-25T02:06:03.094Z,99228.09
2023-02-25T02:08:33.094Z,99242.56
2023-02-25T02:11:01.902Z,99245.88
2023-02-25T02:13:33.810Z,99235.88
2023-02-25T02:16:24.125Z,99251.00
2023-02-25T02:19:03.326Z,99245.94
2023-02-25T02:41:34.420Z,99254.19
2023-02-25T02:48:39.321Z,99139.69
2023-02-25T02:51:34.838Z,99154.34
2023-02-25T02:54:36.769Z,99174.50
2023-02-25T02:57:10.828Z,99196.06
2023-02-25T02:59:54.527Z,99244.34
2023-02-25T03:02:45.222Z,99183.97
2023-02-25T03:05:22.760Z,99257.72
2023-02-25T03:08:13.396Z,99238.13
2023-02-25T03:10:51.552Z,99269.72
2023-02-25T03:13:35.652Z,99229.72
2023-02-25T03:16:13.488Z,99274.41
2023-02-25T03:18:53.904Z,99191.63
2023-02-25T03:21:36.478Z,99274.56
2023-02-25T03:24:13.318Z,99271.75
2023-02-25T03:26:47.652Z,99215.84
2023-02-25T03:29:25.692Z,99234.38
2023-02-25T03:32:07.635Z,99327.47
2023-02-25T03:34:51.104Z,99260.63
2023-02-25T03:37:31.308Z,99322.13
2023-02-25T03:40:14.814Z,99278.13
2023-02-25T03:43:25.431Z,99331.91
2023-02-25T03:45:57.731Z,99276.91
2023-02-25T03:48:32.249Z,99289.69
2023-02-25T03:51:06.093Z,99230.97
2023-02-25T03:53:39.044Z,99246.41
2023-02-25T03:56:47.120Z,99290.41
2023-02-25T03:59:26.594Z,99271.69
2023-02-25T04:02:04.104Z,99258.72
2023-02-25T04:04:34.958Z,99294.56
2023-02-25T04:07:04.613Z,99324.75
2023-02-25T04:09:35.060Z,99350.72
2023-02-25T04:12:08.640Z,99319.69
2023-02-25T04:14:47.963Z,99258.88
2023-02-25T04:17:15.960Z,99414.75
2023-02-25T04:19:47.113Z,99364.38
2023-02-25T04:22:15.266Z,99314.47
2023-02-25T04:24:43.360Z,99344.19
2023-02-25T04:27:23.282Z,99286.16
2023-02-25T04:30:03.233Z,99374.00
2023-02-25T04:32:33.671Z,99372.75
2023-02-25T04:35:17.613Z,99365.31
2023-02-25T04:37:45.685Z,99317.28
2023-02-25T04:40:21.263Z,99415.91
2023-02-25T04:43:06.007Z,99313.88
2023-02-25T04:45:36.367Z,99365.78
2023-02-25T04:48:07.265Z,99405.31
2023-02-25T04:50:35.179Z,99389.00
2023-02-25T04:53:05.577Z,99367.63
2023-02-25T04:55:36.942Z,99357.03
2023-02-25T04:58:05.083Z,99387.84
2023-02-25T05:00:35.616Z,99383.94
2023-02-25T05:03:06.191Z,99358.59
2023-02-25T05:05:36.974Z,99333.84
2023-02-25T05:08:05.368Z,99391.41
2023-02-25T05:10:35.573Z,99354.94
2023-02-25T05:13:03.906Z,99427.13
2023-02-25T05:15:34.305Z,99412.00
2023-02-25T05:18:04.979Z,99389.78
2023-02-25T05:20:35.913Z,99346.97
2023-02-25T05:23:05.664Z,99378.81
2023-02-25T05:25:36.749Z,99368.19
2023-02-25T05:28:07.294Z,99402.44
2023-02-25T05:30:36.900Z,99364.81
2023-02-25T05:33:08.254Z,99376.50
2023-02-25T05:35:46.005Z,99379.16
2023-02-25T05:38:16.543Z,99408.16
2023-02-25T05:40:47.174Z,99419.97
2023-02-25T05:43:15.144Z,99392.31
2023-02-25T05:45:46.805Z,99482.50
2023-02-25T05:48:25.734Z,99422.81
2023-02-25T05:51:56.258Z,99419.66
2023-02-25T05:54:25.748Z,99446.13
2023-02-25T05:56:56.217Z,99402.06
2023-02-25T05:59:26.807Z,99451.88
2023-02-25T06:02:38.930Z,99450.84
2023-02-25T06:05:38.590Z,99469.78
2023-02-25T06:08:18.073Z,99488.94
2023-02-25T06:10:49.701Z,99472.38
2023-02-25T06:13:25.650Z,99408.09
2023-02-25T06:15:54.675Z,99568.34
2023-02-25T06:18:25.443Z,99571.97
2023-02-25T06:20:56.111Z,99489.84
2023-02-25T06:23:33.254Z,99494.72
2023-02-25T06:26:12.580Z,99568.31
2023-02-25T06:28:46.273Z,99559.22
2023-02-25T06:31:17.117Z,99554.34
2023-02-25T06:33:47.593Z,99478.72
2023-02-25T06:36:24.643Z,99568.38
2023-02-25T06:38:57.994Z,99528.09
2023-02-25T06:41:52.259Z,99531.88
2023-02-25T06:44:20.701Z,99545.69
2023-02-25T06:47:05.003Z,99552.66
2023-02-25T06:49:33.600Z,99616.84
2023-02-25T06:52:08.520Z,99602.78
2023-02-25T06:54:47.412Z,99537.88
2023-02-25T06:57:15.712Z,99552.03
2023-02-25T06:59:50.959Z,99552.59
2023-02-25T07:02:25.063Z,99577.56
2023-02-25T07:04:56.297Z,99606.19
2023-02-25T07:07:40.024Z,99590.66
2023-02-25T07:10:15.908Z,99600.31
2023-02-25T07:12:47.482Z,99545.22
2023-02-25T07:15:26.357Z,99616.72
2023-02-25T07:17:56.995Z,99649.44
2023-02-25T07:20:27.671Z,99624.59
2023-02-25T07:23:10.370Z,99612.28
2023-02-25T07:25:43.248Z,99645.34
2023-02-25T07:28:26.380Z,99575.91
2023-02-25T07:32:16.250Z,99633.53
2023-02-25T07:34:45.675Z,99638.53
2023-02-25T07:37:48.666Z,99577.78
2023-02-25T07:40:33.296Z,99614.50
2023-02-25T07:43:06.449Z,99598.59
2023-02-25T07:45:58.215Z,99598.53
2023-02-25T07:48:57.782Z,99624.44
2023-02-25T07:51:35.592Z,99612.56
2023-02-25T07:54:16.890Z,99666.56
2023-02-25T07:56:57.376Z,99651.81
2023-02-25T07:59:45.833Z,99618.97
2023-02-25T08:02:28.143Z,99595.38
2023-02-25T08:05:06.553Z,99663.91
2023-02-25T08:07:37.544Z,99633.06
2023-02-25T08:10:06.271Z,99611.28
2023-02-25T08:12:45.672Z,99656.88
2023-02-25T08:18:57.303Z,99669.59
2023-02-25T08:21:26.499Z,99628.56
2023-02-25T08:24:08.479Z,99687.69
2023-02-25T08:28:38.713Z,99671.25
2023-02-25T08:34:23.906Z,99635.56
2023-02-25T08:40:14.118Z,99658.41
2023-02-25T08:43:33.076Z,99724.09
2023-02-25T08:46:07.395Z,99741.25
2023-02-25T08:48:48.244Z,99683.34
2023-02-25T08:51:44.525Z,99749.66
2023-02-25T08:54:24.842Z,99812.88
2023-02-25T08:56:57.387Z,99781.22
2023-02-25T08:59:42.595Z,99692.88
2023-02-25T09:02:17.324Z,99674.63
2023-02-25T09:05:20.591Z,99746.53
2023-02-25T09:08:42.051Z,99761.19
2023-02-25T09:11:18.630Z,99783.81
2023-02-25T09:13:57.347Z,99769.63
2023-02-25T09:16:29.822Z,99765.91
2023-02-25T09:19:18.456Z,99730.75
2023-02-25T09:22:04.238Z,99802.06
2023-02-25T09:24:37.098Z,99771.22
2023-02-25T09:27:56.107Z,99808.78
2023-02-25T09:29:57.908Z,99818.50
2023-02-25T09:32:37.007Z,99841.84
2023-02-25T09:35:08.187Z,99769.22
2023-02-25T09:37:41.027Z,99844.16
2023-02-25T09:40:36.177Z,99746.03
2023-02-25T09:43:46.235Z,99840.75
2023-02-25T09:46:34.953Z,99846.19
2023-02-25T09:50:16.330Z,99829.22
2023-02-25T09:52:45.714Z,99784.22
2023-02-25T09:55:47.373Z,99858.13
2023-02-25T09:58:57.729Z,99879.88
2023-02-25T10:02:26.952Z,99909.50
2023-02-25T10:05:00.676Z,99912.59
2023-02-25T10:08:03.324Z,99857.31
2023-02-25T10:11:00.709Z,99928.13
2023-02-25T10:13:58.353Z,99936.34
2023-02-25T10:16:58.206Z,99930.81
2023-02-25T10:20:27.486Z,99873.81
2023-02-25T10:23:54.103Z,99920.75
2023-02-25T10:26:32.557Z,99912.84
2023-02-25T10:29:46.443Z,99920.00
2023-02-25T10:32:37.199Z,99948.72
2023-02-25T10:35:19.746Z,99948.69
2023-02-25T10:37:47.437Z,99959.41
2023-02-25T10:40:19.634Z,99935.22
2023-02-25T10:42:51.914Z,99949.44
2023-02-25T10:45:32.422Z,99964.97
2023-02-25T10:48:23.347Z,99962.81
2023-02-25T10:51:14.951Z,99961.09
2023-02-25T10:53:59.337Z,99989.56
2023-02-25T10:56:46.084Z,99992.44
2023-02-25T10:59:59.075Z,99984.94
2023-02-25T11:02:42.239Z,99950.28
2023-02-25T11:05:37.952Z,100000.69
2023-02-25T11:08:30.128Z,99982.25
2023-02-25T11:11:25.923Z,99975.78
2023-02-25T11:14:01.142Z,99971.44
2023-02-25T11:16:36.656Z,99999.00
2023-02-25T11:19:38.684Z,100009.47
2023-02-25T11:22:37.445Z,100017.78
2023-02-25T11:25:16.177Z,100004.16
2023-02-25T11:27:54.113Z,99894.91
2023-02-25T11:30:54.335Z,100005.19
2023-02-25T11:33:35.921Z,99964.34
2023-02-25T11:36:07.700Z,100029.16
2023-02-25T11:38:41.381Z,99986.56
2023-02-25T11:41:23.419Z,100002.38
2023-02-25T11:44:00.268Z,99973.75
2023-02-25T11:46:37.515Z,100020.63
2023-02-25T11:49:45.745Z,99913.81
2023-02-25T11:53:25.608Z,100043.16
2023-02-25T11:56:45.310Z,99981.13
2023-02-25T11:59:37.252Z,100046.84
2023-02-25T12:02:31.723Z,100054.88
2023-02-25T12:05:50.478Z,99943.03
2023-02-25T12:09:11.511Z,100013.56
2023-02-25T12:12:49.714Z,100057.16
2023-02-25T12:16:11.225Z,99944.03
2023-02-25T12:19:37.309Z,100062.25
2023-02-25T12:22:20.137Z,100074.13
2023-02-25T12:26:42.464Z,100080.91
2023-02-25T12:29:47.708Z,100086.75
2023-02-25T12:32:59.008Z,100093.63
2023-02-25T12:36:04.609Z,100098.28
2023-02-25T12:39:44.527Z,100105.47
2023-02-25T12:42:55.059Z,100102.44
2023-02-25T12:45:43.900Z,100070.31
2023-02-25T12:48:49.179Z,100102.94
2023-02-25T12:51:45.554Z,99998.56
2023-02-25T12:58:35.688Z,100122.59
2023-02-25T13:01:45.493Z,100079.59
2023-02-25T13:05:08.043Z,100136.50
2023-02-25T13:08:05.517Z,100136.19
2023-02-25T13:10:54.710Z,100127.38
2023-02-25T13:13:53.092Z,100134.72
2023-02-25T13:16:44.919Z,100153.78
2023-02-25T13:20:39.230Z,100134.50
2023-02-25T13:23:40.419Z,100149.13
2023-02-25T13:26:58.920Z,100155.00
2023-02-25T13:29:54.455Z,100163.66
2023-02-25T13:33:18.818Z,100172.44
2023-02-25T13:36:17.817Z,100163.25
2023-02-25T13:39:47.904Z,100171.69
2023-02-25T13:43:15.416Z,100172.28
2023-02-25T13:46:11.049Z,100178.38
2023-02-25T13:49:17.256Z,100171.38
2023-02-25T13:52:17.054Z,100178.25
2023-02-25T13:55:40.277Z,100169.84
2023-02-25T13:58:38.990Z,100200.63
2023-02-25T14:01:27.688Z,100193.34
2023-02-25T14:04:42.409Z,100217.97
2023-02-25T14:07:30.879Z,100222.22
2023-02-25T14:10:23.621Z,100233.06
2023-02-25T14:13:15.309Z,100243.50
2023-02-25T14:16:20.894Z,100241.53
2023-02-25T14:19:28.598Z,100243.06
2023-02-25T14:22:17.040Z,100244.25
2023-02-25T14:25:47.133Z,100260.47
2023-02-25T14:28:54.125Z,100254.22
2023-02-25T14:31:56.209Z,100262.69
2023-02-25T14:34:37.032Z,100240.19
2023-02-25T14:37:43.433Z,100206.41
2023-02-25T14:40:49.988Z,100194.53
2023-02-25T14:43:26.924Z,100265.69
2023-02-25T14:46:29.769Z,100270.38
2023-02-25T14:49:46.192Z,100293.28
2023-02-25T14:52:30.476Z,100253.81
2023-02-25T14:55:29.481Z,100280.84
2023-02-25T14:58:18.629Z,100302.72
2023-02-25T15:01:36.956Z,100291.97
2023-02-25T15:04:12.681Z,100297.19
2023-02-25T15:07:14.404Z,100301.84
2023-02-25T15:10:31.333Z,100263.59
2023-02-25T15:13:46.375Z,100329.91
2023-02-25T15:16:38.644Z,100317.19
2023-02-25T15:19:26.315Z,100321.22
2023-02-25T15:22:29.366Z,100336.88
2023-02-25T15:25:25.724Z,100330.31
2023-02-25T15:28:04.454Z,100323.19
2023-02-25T15:31:09.231Z,100234.69
2023-02-25T15:33:56.961Z,100355.66
2023-02-25T15:36:51.895Z,100319.84
2023-02-25T15:39:44.509Z,100359.78
2023-02-25T15:42:17.289Z,100337.97
2023-02-25T15:44:48.317Z,100287.28
2023-02-25T15:50:57.927Z,100384.34
2023-02-25T15:53:26.499Z,100383.63
2023-02-25T15:56:14.213Z,100387.41
2023-02-25T15:59:02.897Z,100340.59
2023-02-25T16:01:48.035Z,100344.50
2023-02-25T16:04:51.709Z,100395.69
2023-02-25T16:07:47.204Z,100352.78
2023-02-25T16:10:46.493Z,100363.94
2023-02-25T16:13:26.640Z,100394.66
2023-02-25T16:15:57.636Z,100417.97
2023-02-25T16:18:57.762Z,100430.06
2023-02-25T16:22:02.102Z,100439.41
2023-02-25T16:24:47.692Z,100431.59
2023-02-25T16:28:26.983Z,100422.97
2023-02-25T16:31:46.053Z,100385.53
2023-02-25T16:34:40.850Z,100396.94
2023-02-25T16:37:29.704Z,100426.81
2023-02-25T16:40:06.623Z,100378.84
2023-02-25T16:42:38.298Z,100454.38
2023-02-25T16:45:24.509Z,100450.13
2023-02-25T16:48:15.623Z,100413.19
2023-02-25T16:50:48.895Z,100474.34
2023-02-25T16:53:25.572Z,100501.28
2023-02-25T16:56:06.170Z,100410.66
2023-02-25T16:58:41.220Z,100463.47
2023-02-25T17:01:27.460Z,100524.00
2023-02-25T17:04:24.882Z,100495.09
2023-02-25T17:08:10.164Z,100518.00
2023-02-25T17:10:29.038Z,100515.69
2023-02-25T17:12:59.354Z,100526.22
2023-02-25T17:15:42.739Z,100506.47
2023-02-25T17:18:48.838Z,100499.44
2023-02-25T17:21:39.267Z,100498.94
2023-02-25T17:24:16.121Z,100547.38
2023-02-25T17:26:51.620Z,100503.94
2023-02-25T17:29:36.190Z,100521.22
2023-02-25T17:32:26.094Z,100535.44
2023-02-25T17:35:06.009Z,100500.44
2023-02-25T17:37:39.815Z,100465.38
2023-02-25T17:40:18.334Z,100499.56
2023-02-25T17:42:48.886Z,100567.66
2023-02-25T17:45:41.462Z,100543.91
2023-02-25T17:48:55.612Z,100518.94
2023-02-25T17:51:37.642Z,100579.66
2023-02-25T17:54:27.877Z,100611.75
2023-02-25T17:57:18.980Z,100599.69
2023-02-25T17:59:56.837Z,100616.19
2023-02-25T18:02:50.496Z,100618.59
2023-02-25T18:06:06.820Z,100633.00
2023-02-25T18:09:04.217Z,100611.84
2023-02-25T18:11:40.078Z,100606.53
2023-02-25T18:14:48.246Z,100617.41
2023-02-25T18:17:45.869Z,100588.38
2023-02-25T18:21:27.507Z,100622.31
2023-02-25T18:24:07.858Z,100622.09
2023-02-25T18:26:38.820Z,100538.16
2023-02-25T18:29:10.396Z,100620.06
2023-02-25T18:31:46.169Z,100589.31
2023-02-25T18:34:25.678Z,100641.56
2023-02-25T18:36:56.049Z,100659.38
2023-02-25T18:39:27.214Z,100655.81
2023-02-25T18:41:59.997Z,100611.25
2023-02-25T18:44:27.841Z,100622.66
2023-02-25T18:47:07.183Z,100597.91
2023-02-25T18:49:36.467Z,100664.38
2023-02-25T18:52:39.576Z,100563.41
2023-02-25T18:58:09.234Z,100565.31
2023-02-25T18:59:49.339Z,100598.88
2023-02-25T19:03:11.462Z,100581.41
2023-02-25T19:06:38.058Z,100591.69
2023-02-25T19:09:17.932Z,100627.19
2023-02-25T19:11:48.425Z,100714.41
2023-02-25T19:14:20.074Z,100587.63
2023-02-25T19:16:49.293Z,100590.59
2023-02-25T19:19:17.441Z,100634.50
2023-02-25T19:22:01.395Z,100651.13
2023-02-25T19:24:29.515Z,100714.75
2023-02-25T19:40:47.166Z,100607.06
2023-02-25T19:45:49.128Z,100669.72
2023-02-25T21:34:58.102Z,100747.19
2023-02-25T21:37:26.913Z,100846.31
2023-02-25T21:39:57.202Z,100837.88
2023-02-25T21:44:30.180Z,100879.44
2023-02-25T21:46:58.255Z,100820.28
2023-02-25T21:49:31.670Z,100861.22
2023-02-25T21:52:20.594Z,100819.25
2023-02-25T21:55:10.171Z,100780.78
2023-02-25T21:57:38.434Z,100872.91
2023-02-25T22:00:10.462Z,100892.06
2023-02-25T22:02:45.454Z,100834.31
2023-02-25T22:05:13.399Z,100876.34
2023-02-25T22:07:59.518Z,100802.09
2023-02-25T22:10:27.824Z,100916.81
2023-02-25T22:13:00.705Z,100883.94
2023-02-25T22:15:31.269Z,100886.53
2023-02-25T22:18:03.090Z,100892.44
2023-02-25T22:20:33.864Z,100880.06
2023-02-25T22:23:09.968Z,100834.06
2023-02-25T22:25:41.973Z,100916.72
2023-02-25T22:28:09.961Z,100869.38
2023-02-25T22:30:37.703Z,100921.47
2023-02-25T22:33:08.286Z,100931.81
2023-02-25T22:35:44.822Z,100911.19
2023-02-25T22:38:18.084Z,100906.03
2023-02-25T22:40:47.268Z,100919.06
2023-02-25T22:43:16.896Z,100903.75
2023-02-25T22:45:44.967Z,100911.75
2023-02-25T22:48:12.711Z,100915.84
2023-02-25T22:50:49.441Z,100893.03
2023-02-25T22:53:20.188Z,100903.22
2023-02-25T22:55:48.016Z,100878.78
2023-02-25T22:58:18.172Z,100907.88
2023-02-25T23:01:26.393Z,100928.59
2023-02-25T23:04:11.622Z,100961.28
2023-02-25T23:06:47.694Z,100897.84
2023-02-25T23:09:21.672Z,100965.53
2023-02-25T23:11:49.474Z,100972.75
2023-02-25T23:14:19.175Z,100963.84
2023-02-25T23:16:51.115Z,100957.00
2023-02-25T23:19:19.783Z,100953.47
2023-02-25T23:21:47.521Z,100966.00
2023-02-25T23:24:18.643Z,100974.13
2023-02-25T23:26:58.854Z,100978.50
2023-02-25T23:29:36.692Z,100947.06
2023-02-25T23:32:08.528Z,100961.63
2023-02-25T23:34:39.732Z,101012.41
2023-02-25T23:37:21.405Z,100965.03
2023-02-25T23:39:57.523Z,100992.75
2023-02-25T23:45:09.436Z,101024.06
2023-02-25T23:48:56.982Z,101026.56
2023-02-25T23:51:18.568Z,100960.16
2023-02-25T23:53:56.465Z,101011.50
2023-02-25T23:56:29.220Z,100942.81
2023-02-25T23:58:57.615Z,101001.28
